Time;durP1;ratioP1;P1;durP2;ratioP2;P2;SDS_P1;SDS_P2;PMS_P1;PMS_P2;Temp;Humidity;BMP_temperature;BMP_pressure;BME280_temperature;BME280_humidity;BME280_pressure;Samples;Min_cycle;Max_cycle;Signal;HPM_P1;HPM_P2
2022/03/21 00:00:53;;;;;;;19.58;10.40;;;;;;;-3.77;59.56;95071.25;5113382;28;20035;-42
2022/03/21 00:03:21;;;;;;;20.17;11.63;;;;;;;-3.94;58.96;95042.69;5113662;28;20103;-41
2022/03/21 00:05:47;;;;;;;58.97;28.05;;;;;;;-3.65;57.99;95050.94;5113274;27;20024;-42
2022/03/21 00:08:17;;;;;;;64.82;30.98;;;;;;;-3.58;58.92;95059.66;5101999;28;20036;-42
2022/03/21 00:10:43;;;;;;;34.78;17.88;;;;;;;-3.80;59.86;95063.22;5101216;28;20434;-41
2022/03/21 00:13:09;;;;;;;34.17;19.20;;;;;;;-3.75;59.23;95068.91;5113110;28;20034;-42
2022/03/21 00:15:35;;;;;;;44.72;23.20;;;;;;;-3.80;58.71;95061.28;5113125;28;20031;-41
2022/03/21 00:18:02;;;;;;;51.60;25.05;;;;;;;-3.87;58.42;95046.00;5113265;28;20442;-42
2022/03/21 00:20:29;;;;;;;35.40;21.45;;;;;;;-3.77;58.43;95062.41;5113310;28;20027;-42
2022/03/21 00:22:55;;;;;;;47.17;23.40;;;;;;;-3.95;59.74;95049.28;5113272;28;20023;-42
2022/03/21 00:25:21;;;;;;;42.53;20.25;;;;;;;-3.87;59.64;95066.84;5112916;28;20449;-41
2022/03/21 00:27:46;;;;;;;35.88;19.38;;;;;;;-3.97;59.81;95032.75;5113236;28;20132;-41
2022/03/21 00:30:12;;;;;;;33.35;15.52;;;;;;;-3.96;58.86;95048.50;5113182;28;20404;-41
2022/03/21 00:32:38;;;;;;;36.70;18.65;;;;;;;-3.87;58.66;95046.00;5112758;28;20172;-41
2022/03/21 00:35:08;;;;;;;31.02;16.17;;;;;;;-4.15;60.39;95062.78;5112758;28;20497;-41
2022/03/21 00:37:38;;;;;;;31.55;18.30;;;;;;;-4.03;61.09;95059.44;5112922;28;20020;-41
2022/03/21 00:40:07;;;;;;;27.02;13.90;;;;;;;-3.91;59.66;95049.97;5112298;28;20030;-41
2022/03/21 00:42:34;;;;;;;22.83;13.35;;;;;;;-3.87;58.22;95054.09;5112648;28;20557;-41
2022/03/21 00:45:05;;;;;;;26.73;12.57;;;;;;;-3.78;57.27;95045.44;5112492;28;20115;-42
2022/03/21 00:47:31;;;;;;;23.25;12.70;;;;;;;-4.19;58.41;95015.47;5112803;28;20023;-41
2022/03/21 00:49:57;;;;;;;21.00;10.65;;;;;;;-4.51;61.85;95053.06;5112662;28;20030;-42
2022/03/21 00:52:22;;;;;;;19.90;9.75;;;;;;;-4.27;59.84;95046.44;5112684;28;20409;-42
2022/03/21 00:54:47;;;;;;;27.95;12.55;;;;;;;-4.65;59.30;94987.47;5110872;28;20023;-42
2022/03/21 00:57:13;;;;;;;23.33;12.25;;;;;;;-4.49;60.77;95046.09;5091772;28;20057;-42
2022/03/21 00:59:39;;;;;;;20.60;10.27;;;;;;;-4.42;61.26;95043.28;5092191;28;20023;-41
2022/03/21 01:02:05;;;;;;;21.13;10.30;;;;;;;-4.34;61.73;95041.97;5092213;28;20493;-41
2022/03/21 01:04:30;;;;;;;20.77;10.98;;;;;;;-4.46;61.18;95039.13;5103056;28;20088;-41
2022/03/21 01:06:56;;;;;;;19.85;10.90;;;;;;;-4.62;60.78;95013.63;5112145;28;20027;-41
2022/03/21 01:09:21;;;;;;;19.95;10.48;;;;;;;-4.34;61.15;95030.41;5112324;28;20073;-42
2022/03/21 01:11:47;;;;;;;20.13;10.50;;;;;;;-4.80;61.92;95036.63;5095019;27;20024;-41
2022/03/21 01:14:13;;;;;;;17.00;8.48;;;;;;;-4.62;62.36;95032.47;5091527;28;20099;-41
2022/03/21 01:16:38;;;;;;;15.52;7.95;;;;;;;-4.44;60.65;95028.69;5091858;28;20028;-41
2022/03/21 01:19:05;;;;;;;18.10;9.32;;;;;;;-4.38;60.60;95022.41;5091454;28;20448;-42
2022/03/21 01:21:32;;;;;;;19.50;9.68;;;;;;;-4.50;61.60;95030.34;5091683;28;20151;-41
2022/03/21 01:23:58;;;;;;;19.50;9.30;;;;;;;-4.83;61.97;95022.06;5091423;28;20020;-41
2022/03/21 01:26:23;;;;;;;20.65;11.50;;;;;;;-4.72;62.09;95024.59;5091653;28;20020;-41
2022/03/21 01:28:48;;;;;;;35.40;14.20;;;;;;;-4.71;62.36;95018.00;5091638;28;20538;-42
2022/03/21 01:31:14;;;;;;;15.80;6.80;;;;;;;-5.25;63.53;95020.09;5090995;28;20421;-42
2022/03/21 01:33:41;;;;;;;11.52;6.47;;;;;;;-5.18;64.00;95021.91;5091186;28;20413;-42
2022/03/21 01:36:07;;;;;;;11.10;6.05;;;;;;;-4.93;63.10;95016.84;5091526;28;20050;-41
2022/03/21 01:38:33;;;;;;;13.05;6.90;;;;;;;-4.83;61.78;95015.94;5091365;28;20016;-41
2022/03/21 01:40:58;;;;;;;16.30;8.27;;;;;;;-4.86;62.74;95012.13;5101630;28;20023;-42
2022/03/21 01:43:24;;;;;;;12.23;7.00;;;;;;;-4.76;62.73;95011.16;5111374;28;20073;-41
2022/03/21 01:45:49;;;;;;;19.00;8.93;;;;;;;-4.63;62.82;95006.69;5111309;28;20019;-42
2022/03/21 01:48:15;;;;;;;16.33;9.82;;;;;;;-4.93;62.75;95008.78;5111657;28;20030;-42
2022/03/21 01:50:41;;;;;;;22.63;10.93;;;;;;;-4.97;63.98;95006.16;5111530;27;20424;-42
2022/03/21 01:55:52;;;;;;;22.92;12.38;;;;;;;-4.86;62.66;94998.66;5101089;28;20035;-41
2022/03/21 01:58:17;;;;;;;21.33;11.63;;;;;;;-4.93;63.91;95003.38;5089427;28;20051;-42
2022/03/21 02:00:43;;;;;;;20.15;10.80;;;;;;;-5.11;63.94;95003.69;5100567;28;20023;-42
2022/03/21 02:03:09;;;;;;;25.30;14.18;;;;;;;-4.91;62.33;95004.50;5111338;28;20098;-42
2022/03/21 02:05:37;;;;;;;20.33;10.68;;;;;;;-4.87;62.20;94996.34;5111363;28;20111;-43
2022/03/21 02:08:03;;;;;;;21.90;11.95;;;;;;;-5.11;63.26;94974.06;5111273;28;20028;-42
2022/03/21 02:10:29;;;;;;;21.92;12.50;;;;;;;-4.95;64.88;94995.72;5110875;28;20035;-42
2022/03/21 02:12:54;;;;;;;25.23;12.32;;;;;;;-4.86;63.49;95003.28;5111154;28;20020;-41
2022/03/21 02:15:20;;;;;;;26.27;11.80;;;;;;;-5.38;64.94;94989.53;5111182;28;20230;-42
2022/03/21 02:17:46;;;;;;;20.80;11.27;;;;;;;-5.27;63.99;94986.69;5111161;28;20386;-42
2022/03/21 02:20:18;;;;;;;21.02;11.45;;;;;;;-5.12;63.12;94990.66;5111095;28;20102;-42
2022/03/21 02:23:14;;;;;;;18.35;11.23;;;;;;;-5.53;64.83;94997.09;5111097;28;20393;-43
2022/03/21 02:25:43;;;;;;;18.50;10.48;;;;;;;-5.42;64.10;94996.91;5110727;28;20489;-43
2022/03/21 02:28:13;;;;;;;20.35;10.30;;;;;;;-5.33;63.79;94994.47;5111036;28;20040;-45
2022/03/21 02:30:49;;;;;;;17.63;9.75;;;;;;;-5.37;64.01;94999.88;5109556;28;20059;-43
2022/03/21 02:33:18;;;;;;;17.08;8.48;;;;;;;-5.44;64.27;94978.50;5111019;28;20027;-43
2022/03/21 02:35:47;;;;;;;11.77;7.07;;;;;;;-5.12;62.41;94983.34;5110934;28;20412;-43
2022/03/21 02:38:13;;;;;;;;;;;;;;;-5.21;63.34;94993.88;5111477;28;20039;-43
2022/03/21 02:40:38;;;;;;;11.85;7.72;;;;;;;-5.26;64.83;94994.34;5110579;28;19912;-42
2022/03/21 02:43:04;;;;;;;19.38;10.10;;;;;;;-5.29;64.33;94992.47;5112907;28;20496;-42
2022/03/21 02:45:30;;;;;;;20.75;9.65;;;;;;;-5.33;64.56;94997.16;5114803;28;20024;-42
2022/03/21 02:47:55;;;;;;;20.08;10.88;;;;;;;-5.54;65.72;94965.97;5115085;28;20058;-42
2022/03/21 02:50:31;;;;;;;16.77;8.15;;;;;;;-5.83;65.97;94993.69;5115018;28;20428;-42
2022/03/21 02:52:57;;;;;;;20.70;9.13;;;;;;;-5.53;64.38;94985.56;5114622;28;20039;-42
2022/03/21 02:55:23;;;;;;;14.02;9.00;;;;;;;-5.51;64.32;94985.91;5114660;28;20093;-42
2022/03/21 02:57:48;;;;;;;17.33;9.13;;;;;;;-5.44;63.74;94981.19;5096180;28;20052;-42
2022/03/21 03:00:14;;;;;;;11.90;6.68;;;;;;;-5.48;62.53;94979.72;5094477;28;20027;-41
2022/03/21 03:02:40;;;;;;;14.07;7.40;;;;;;;-5.38;64.29;94993.00;5094077;28;20072;-41
2022/03/21 03:05:05;;;;;;;21.80;11.65;;;;;;;-5.43;64.40;94980.00;5094467;28;20024;-42
2022/03/21 03:07:31;;;;;;;21.48;12.45;;;;;;;-5.56;65.06;94989.06;5094301;28;20485;-42
2022/03/21 03:09:56;;;;;;;13.23;7.80;;;;;;;-5.49;64.38;94978.19;5095889;28;20463;-42
2022/03/21 03:12:21;;;;;;;13.88;7.40;;;;;;;-5.30;63.44;94974.03;5114572;28;20031;-43
2022/03/21 03:14:47;;;;;;;9.65;5.97;;;;;;;-5.05;60.06;94987.84;5114409;28;20529;-44
2022/03/21 03:17:12;;;;;;;14.30;8.18;;;;;;;-5.01;59.41;94967.75;5114623;28;20080;-42
2022/03/21 03:19:38;;;;;;;17.00;7.80;;;;;;;-4.74;57.90;94971.09;5114538;28;20480;-43
2022/03/21 03:22:04;;;;;;;24.17;9.95;;;;;;;-4.70;61.32;94987.94;5114152;28;20024;-42
2022/03/21 03:24:30;;;;;;;17.08;8.27;;;;;;;-4.75;59.86;94968.81;5113291;28;20085;-43
2022/03/21 03:26:56;;;;;;;17.95;6.43;;;;;;;-4.62;57.34;94948.94;5114022;28;20034;-42
2022/03/21 03:29:21;;;;;;;18.33;8.23;;;;;;;-4.21;54.56;94966.59;5114059;28;20020;-43
2022/03/21 03:31:48;;;;;;;16.17;8.18;;;;;;;-4.26;55.81;94957.06;5113880;28;20020;-42
2022/03/21 03:34:13;;;;;;;15.13;8.30;;;;;;;-4.54;55.38;94932.59;5114206;28;20103;-42
2022/03/21 03:36:38;;;;;;;12.63;7.07;;;;;;;-4.18;54.62;94958.41;5112714;28;20059;-42
2022/03/21 03:39:04;;;;;;;18.10;8.93;;;;;;;-4.06;56.68;94962.41;5114066;28;20027;-43
2022/03/21 03:41:30;;;;;;;20.75;11.27;;;;;;;-4.10;57.42;94956.34;5098894;28;20105;-45
2022/03/21 03:43:56;;;;;;;14.45;9.07;;;;;;;-4.22;57.11;94975.88;5093618;28;20459;-43
2022/03/21 03:46:22;;;;;;;17.55;10.07;;;;;;;-4.12;56.22;94966.78;5093230;28;20035;-45
2022/03/21 03:48:48;;;;;;;14.13;8.18;;;;;;;-3.96;55.36;94966.81;5093564;28;20032;-44
2022/03/21 03:51:13;;;;;;;15.07;8.70;;;;;;;-3.99;54.75;94964.97;5093055;28;20558;-45
2022/03/21 03:53:39;;;;;;;14.43;8.18;;;;;;;-3.86;55.34;94965.84;5107289;28;20027;-43
2022/03/21 03:56:06;;;;;;;19.55;8.43;;;;;;;-3.87;54.86;94956.97;5113401;28;20031;-45
2022/03/21 03:58:33;;;;;;;12.88;7.55;;;;;;;-3.67;53.93;94965.00;5113289;28;20512;-43
2022/03/21 04:00:58;;;;;;;14.65;8.45;;;;;;;-3.77;54.92;94955.22;5113738;28;20081;-42
2022/03/21 04:06:08;;;;;;;19.38;9.23;;;;;;;-3.97;56.44;94947.19;5113700;28;20122;-42
2022/03/21 04:08:33;;;;;;;18.08;8.65;;;;;;;-3.78;53.72;94942.13;5113305;28;20111;-42
2022/03/21 04:10:59;;;;;;;28.73;10.90;;;;;;;-3.79;54.04;94943.34;5102908;28;20016;-43
2022/03/21 04:13:24;;;;;;;91.40;34.15;;;;;;;-3.74;54.13;94937.41;5093042;28;20409;-43
2022/03/21 04:15:50;;;;;;;20.80;10.40;;;;;;;-3.53;53.27;94947.75;5092684;28;20062;-43
2022/03/21 04:18:15;;;;;;;12.95;8.63;;;;;;;-3.46;52.50;94936.75;5093013;28;20031;-44
2022/03/21 04:20:41;;;;;;;21.63;12.75;;;;;;;-3.48;51.35;94950.69;5092978;28;20451;-44
2022/03/21 04:23:11;;;;;;;13.50;6.90;;;;;;;-3.29;50.88;94949.81;5092963;28;20028;-43
2022/03/21 04:25:37;;;;;;;13.73;7.25;;;;;;;-3.04;49.87;94953.84;5092620;28;20085;-45
2022/03/21 04:28:12;;;;;;;10.77;6.22;;;;;;;-3.03;51.24;94958.81;5092467;28;20067;-44
2022/03/21 04:30:38;;;;;;;14.07;7.30;;;;;;;-2.94;49.40;94950.88;5092577;28;20035;-44
2022/03/21 04:33:04;;;;;;;18.27;10.18;;;;;;;-2.95;50.53;94956.72;5092540;28;20020;-44
2022/03/21 04:35:30;;;;;;;20.40;9.90;;;;;;;-2.99;50.16;94959.50;5092475;28;20024;-44
2022/03/21 04:37:55;;;;;;;17.00;9.95;;;;;;;-3.02;52.82;94962.28;5092309;28;20055;-44
2022/03/21 04:40:22;;;;;;;17.30;8.27;;;;;;;-2.96;50.85;94955.19;5097245;28;20101;-44
2022/03/21 04:42:48;;;;;;;15.40;8.65;;;;;;;-3.22;52.00;94944.25;5112912;28;20027;-44
2022/03/21 04:45:14;;;;;;;15.35;8.73;;;;;;;-3.04;51.96;94946.50;5112811;28;20034;-44
2022/03/21 04:47:39;;;;;;;11.75;6.65;;;;;;;-2.95;50.63;94943.19;5112852;28;20407;-44
2022/03/21 04:50:07;;;;;;;14.95;8.27;;;;;;;-2.73;49.41;94952.28;5096190;28;20036;-43
2022/03/21 04:52:33;;;;;;;13.38;8.45;;;;;;;-2.68;49.31;94954.44;5091907;28;20028;-43
2022/03/21 04:54:59;;;;;;;13.05;7.60;;;;;;;-2.72;51.05;94954.53;5094861;28;20114;-43
2022/03/21 04:57:25;;;;;;;15.38;8.38;;;;;;;-2.54;49.78;94964.88;5112326;28;20132;-43
2022/03/21 04:59:51;;;;;;;16.80;8.20;;;;;;;-2.58;49.41;94970.41;5112301;28;20020;-44
2022/03/21 05:02:16;;;;;;;14.02;8.23;;;;;;;-2.58;50.58;94969.63;5112526;28;20051;-43
2022/03/21 05:04:42;;;;;;;14.02;8.57;;;;;;;-2.59;49.92;94973.50;5111257;28;20494;-43
2022/03/21 05:07:12;;;;;;;12.57;8.23;;;;;;;-2.56;49.68;94983.47;5112223;28;20019;-43
2022/03/21 05:09:40;;;;;;;21.33;11.52;;;;;;;-2.50;50.64;94973.66;5112163;28;20062;-43
2022/03/21 05:12:06;;;;;;;18.95;9.32;;;;;;;-2.38;50.03;94979.09;5112236;28;20032;-43
2022/03/21 05:14:32;;;;;;;17.98;9.20;;;;;;;-2.27;49.54;94976.09;5111605;28;20676;-43
2022/03/21 05:17:01;;;;;;;17.10;10.00;;;;;;;-2.35;50.13;94967.44;5111262;28;20074;-45
2022/03/21 05:19:26;;;;;;;;;;;;;;;-2.23;50.26;94967.91;5112509;28;20034;-45
2022/03/21 05:21:52;;;;;;;15.90;8.88;;;;;;;-2.11;49.64;94975.28;5111770;28;19911;-44
2022/03/21 05:32:30;;;;;;;19.55;9.77;;;;;;;-1.52;47.88;94988.22;5111683;28;20027;-43
2022/03/21 05:37:39;;;;;;;31.63;17.23;;;;;;;-1.34;46.72;94974.91;5111900;28;20042;-43
2022/03/21 05:42:50;;;;;;;42.38;18.13;;;;;;;-0.47;47.03;94979.31;5111814;28;20030;-43
2022/03/21 05:45:19;;;;;;;37.55;18.48;;;;;;;0.13;45.36;94982.59;5104353;28;20103;-44
2022/03/21 05:50:32;;;;;;;21.20;12.63;;;;;;;0.97;42.34;94985.97;5091241;28;20058;-46
2022/03/21 05:52:58;;;;;;;21.75;10.80;;;;;;;1.32;42.03;94988.00;5090861;28;20051;-44
2022/03/21 05:55:23;;;;;;;17.05;10.85;;;;;;;1.51;40.75;94959.59;5097448;28;20019;-45
2022/03/21 05:57:49;;;;;;;17.00;10.30;;;;;;;1.98;40.27;94985.59;5111115;28;20524;-45
2022/03/21 06:00:20;;;;;;;21.77;12.60;;;;;;;3.21;37.33;94987.28;5111469;28;20027;-45
2022/03/21 06:02:51;;;;;;;32.67;18.48;;;;;;;4.19;35.81;94987.00;5111081;28;20047;-45
2022/03/21 06:05:16;;;;;;;;;;;;;;;4.20;35.84;94991.97;5111622;28;20481;-45
2022/03/21 06:07:42;;;;;;;17.27;11.82;;;;;;;4.80;35.23;95001.69;5111299;28;20010;-45
2022/03/21 06:10:07;;;;;;;14.98;9.13;;;;;;;4.98;34.21;94994.00;5111152;28;20038;-47
2022/03/21 06:12:33;;;;;;;12.90;7.95;;;;;;;5.14;34.74;94992.75;5111183;28;20454;-45
2022/03/21 06:14:59;;;;;;;16.17;10.02;;;;;;;4.84;32.13;94989.34;5110913;28;20031;-44
2022/03/21 06:17:24;;;;;;;15.60;8.65;;;;;;;4.37;34.09;94997.75;5111059;28;20054;-46
2022/03/21 06:19:50;;;;;;;18.45;10.38;;;;;;;4.95;33.85;94992.25;5110829;28;20113;-44
2022/03/21 06:22:15;;;;;;;11.45;7.60;;;;;;;5.20;32.46;94993.59;5110758;28;20030;-45
2022/03/21 06:24:41;;;;;;;11.10;8.02;;;;;;;5.76;31.79;94995.09;5110804;28;20023;-45
2022/03/21 06:27:06;;;;;;;34.53;18.77;;;;;;;6.39;31.00;94987.84;5111030;28;20027;-44
2022/03/21 06:29:32;;;;;;;22.65;13.73;;;;;;;7.21;28.98;94984.25;5111056;28;20024;-44
2022/03/21 06:31:58;;;;;;;16.13;9.13;;;;;;;8.14;28.85;94980.44;5110920;28;20039;-45
2022/03/21 06:34:23;;;;;;;14.70;10.10;;;;;;;9.19;27.61;94991.59;5110902;28;20031;-45
2022/03/21 06:36:49;;;;;;;29.58;10.57;;;;;;;10.27;25.46;94984.78;5110954;28;20063;-46
2022/03/21 06:39:14;;;;;;;18.70;10.85;;;;;;;10.21;24.66;94984.06;5110854;28;20484;-45
2022/03/21 06:41:44;;;;;;;18.90;9.73;;;;;;;11.59;24.61;94987.03;5101686;28;20036;-45
2022/03/21 06:44:10;;;;;;;16.25;10.10;;;;;;;12.10;23.45;94984.00;5090551;28;20032;-45
2022/03/21 06:46:35;;;;;;;55.22;12.60;;;;;;;13.08;22.95;94976.84;5090494;28;20024;-47
2022/03/21 06:49:01;;;;;;;12.43;9.88;;;;;;;14.14;20.47;94979.22;5090497;28;20414;-45
2022/03/21 06:51:26;;;;;;;14.48;8.77;;;;;;;15.23;20.12;94978.63;5090410;28;20415;-45
2022/03/21 06:53:52;;;;;;;14.43;8.70;;;;;;;15.82;19.12;94974.88;5090412;28;20028;-47
2022/03/21 06:56:17;;;;;;;18.50;12.55;;;;;;;16.27;18.73;94966.78;5104267;28;20555;-46
2022/03/21 06:58:43;;;;;;;15.32;8.93;;;;;;;16.42;18.37;94958.47;5110257;28;20048;-45
2022/03/21 07:01:08;;;;;;;14.95;10.40;;;;;;;16.85;18.84;94963.31;5110518;28;20465;-45
2022/03/21 07:03:34;;;;;;;15.02;10.15;;;;;;;16.95;17.54;94947.53;5110356;28;20024;-46
2022/03/21 07:05:59;;;;;;;11.75;9.25;;;;;;;17.45;17.10;94971.78;5110688;28;20022;-45
2022/03/21 07:08:25;;;;;;;15.60;8.93;;;;;;;18.16;16.80;94964.31;5110622;28;20095;-46
2022/03/21 07:10:50;;;;;;;13.25;9.10;;;;;;;18.07;15.91;94965.63;5110213;28;20484;-48
2022/03/21 07:13:16;;;;;;;12.50;9.68;;;;;;;18.08;16.79;94969.91;5110229;28;20032;-46
2022/03/21 07:15:41;;;;;;;13.57;8.90;;;;;;;18.44;16.90;94971.69;5110539;28;20102;-45
2022/03/21 07:18:08;;;;;;;13.60;8.77;;;;;;;18.35;15.95;94967.44;5110610;28;20019;-45
2022/03/21 07:20:34;;;;;;;13.23;9.43;;;;;;;18.35;17.36;94966.69;5110477;28;20043;-45
2022/03/21 07:23:00;;;;;;;15.50;12.35;;;;;;;18.09;16.14;94963.03;5110548;28;20476;-47
2022/03/21 07:25:26;;;;;;;11.43;9.15;;;;;;;15.91;16.78;94963.22;5110235;28;20028;-46
2022/03/21 07:27:52;;;;;;;20.85;11.15;;;;;;;16.34;18.42;94966.06;5110568;28;20051;-47
2022/03/21 07:30:17;;;;;;;14.15;9.63;;;;;;;17.53;17.22;94957.09;5114438;28;20028;-45
2022/03/21 07:32:43;;;;;;;14.30;10.30;;;;;;;18.57;17.41;94957.50;5114083;28;20059;-45
2022/03/21 07:35:10;;;;;;;16.63;11.15;;;;;;;18.81;16.30;94959.63;5113959;28;20081;-45
2022/03/21 07:37:47;;;;;;;15.93;9.48;;;;;;;18.72;15.93;94958.19;5108169;28;20105;-45
2022/03/21 07:40:13;;;;;;;11.15;8.68;;;;;;;19.14;15.96;94955.53;5097152;28;20020;-44
2022/03/21 07:42:42;;;;;;;13.40;9.48;;;;;;;19.26;15.58;94953.78;5114172;28;20427;-45
2022/03/21 07:47:54;;;;;;;16.38;9.95;;;;;;;18.54;15.37;94956.56;5114029;28;20038;-45
2022/03/21 07:50:20;;;;;;;12.23;9.50;;;;;;;18.77;15.73;94951.66;5114016;28;20080;-44
2022/03/21 07:52:48;;;;;;;13.75;9.15;;;;;;;18.72;15.20;94947.00;5113811;28;20168;-46
2022/03/21 07:55:14;;;;;;;13.38;9.68;;;;;;;17.79;15.54;94918.38;5108488;28;20028;-45
2022/03/21 07:57:39;;;;;;;10.02;8.25;;;;;;;16.96;16.01;94942.69;5093106;28;20044;-44
2022/03/21 08:00:09;;;;;;;12.00;8.35;;;;;;;17.01;17.21;94938.97;5093394;28;20040;-44
2022/03/21 08:02:35;;;;;;;12.13;9.35;;;;;;;17.25;16.09;94935.66;5093029;28;20029;-43
2022/03/21 08:05:01;;;;;;;13.48;10.02;;;;;;;16.94;16.39;94940.47;5092934;28;20024;-45
2022/03/21 08:07:26;;;;;;;14.60;9.15;;;;;;;16.78;16.80;94935.41;5093243;28;20035;-44
2022/03/21 08:09:52;;;;;;;11.75;8.98;;;;;;;16.27;17.40;94932.59;5094181;28;20594;-43
2022/03/21 08:12:18;;;;;;;16.88;8.30;;;;;;;15.19;17.39;94932.41;5113558;28;20031;-45
2022/03/21 08:14:43;;;;;;;13.48;9.60;;;;;;;14.69;18.55;94955.09;5113421;28;20621;-44
2022/03/21 08:17:09;;;;;;;11.23;8.90;;;;;;;14.63;18.62;94943.34;5113439;28;20760;-43
2022/03/21 08:19:35;;;;;;;12.40;9.80;;;;;;;15.28;18.62;94947.88;5113150;28;20027;-43
2022/03/21 08:22:03;;;;;;;19.15;9.50;;;;;;;15.48;18.40;94938.81;5113357;28;20046;-43
2022/03/21 08:24:33;;;;;;;11.45;8.32;;;;;;;14.40;17.69;94945.88;5113033;28;20035;-44
2022/03/21 08:26:59;;;;;;;11.20;8.48;;;;;;;14.33;18.50;94929.88;5113272;28;20031;-44
2022/03/21 08:29:24;;;;;;;12.55;8.90;;;;;;;14.93;18.93;94952.00;5113163;28;20026;-44
2022/03/21 08:31:50;;;;;;;18.90;12.23;;;;;;;15.46;19.02;94946.22;5113115;28;20424;-43
2022/03/21 08:34:15;;;;;;;11.88;8.70;;;;;;;15.26;17.53;94939.34;5112780;28;20508;-43
2022/03/21 08:36:41;;;;;;;10.80;8.15;;;;;;;15.43;19.00;94931.34;5112804;28;20031;-44
2022/03/21 08:39:06;;;;;;;11.50;9.00;;;;;;;15.47;17.18;94942.13;5112216;28;20023;-43
2022/03/21 08:41:32;;;;;;;12.60;9.70;;;;;;;15.61;18.12;94929.63;5111523;28;20034;-43
2022/03/21 08:43:57;;;;;;;12.38;9.05;;;;;;;14.75;18.07;94938.31;5112914;28;20116;-45
2022/03/21 08:46:23;;;;;;;16.85;11.73;;;;;;;16.17;19.77;94931.63;5112840;28;20028;-44
2022/03/21 08:51:33;;;;;;;11.48;8.35;;;;;;;16.75;16.81;94926.09;5112496;28;20029;-45
2022/03/21 08:53:58;;;;;;;10.98;8.35;;;;;;;16.10;16.40;94935.09;5112742;27;20457;-45
2022/03/21 08:56:25;;;;;;;9.73;8.05;;;;;;;15.20;17.02;94924.81;5097551;28;20473;-43
2022/03/21 08:58:51;;;;;;;11.00;8.27;;;;;;;15.09;17.63;94934.16;5091949;28;20024;-44
2022/03/21 09:01:16;;;;;;;29.88;20.45;;;;;;;15.68;17.06;94932.44;5092214;28;20077;-44
2022/03/21 09:03:42;;;;;;;12.55;10.05;;;;;;;16.30;16.99;94932.25;5092167;28;20020;-45
2022/03/21 09:06:07;;;;;;;17.10;8.80;;;;;;;15.86;16.73;94927.91;5091804;28;20081;-43
2022/03/21 09:08:35;;;;;;;11.80;8.57;;;;;;;15.31;18.01;94927.31;5091730;28;20031;-44
2022/03/21 09:11:04;;;;;;;11.25;9.55;;;;;;;15.03;17.39;94941.91;5102740;28;20027;-44
2022/03/21 09:13:30;;;;;;;;;;;;;;;14.34;19.35;94925.03;5112546;28;20030;-43
2022/03/21 09:15:55;;;;;;;14.65;9.15;;;;;;;13.24;18.24;94950.88;5112267;28;19907;-45
2022/03/21 09:18:21;;;;;;;12.75;8.60;;;;;;;12.02;20.62;94938.03;5111994;28;20035;-45
2022/03/21 09:20:47;;;;;;;12.70;8.70;;;;;;;12.52;20.43;94931.81;5112107;28;20019;-43
2022/03/21 09:23:13;;;;;;;12.50;8.27;;;;;;;13.35;20.21;94936.81;5111807;28;20102;-43
2022/03/21 09:25:38;;;;;;;13.68;7.78;;;;;;;14.06;19.69;94928.38;5112046;28;20019;-43
2022/03/21 09:28:04;;;;;;;10.50;8.55;;;;;;;14.16;20.29;94932.19;5111666;28;20176;-45
2022/03/21 09:30:29;;;;;;;13.13;8.60;;;;;;;14.29;19.92;94931.47;5111647;28;20019;-44
2022/03/21 09:32:55;;;;;;;12.77;8.27;;;;;;;14.65;18.48;94926.13;5111813;28;20066;-43
2022/03/21 09:35:20;;;;;;;19.98;9.23;;;;;;;14.53;19.97;94913.78;5111903;28;20480;-44
2022/03/21 09:37:46;;;;;;;13.23;8.23;;;;;;;13.84;19.42;94917.00;5111494;28;20015;-45
2022/03/21 09:40:12;;;;;;;11.70;8.32;;;;;;;14.07;18.97;94929.13;5111107;28;20027;-43
2022/03/21 09:42:39;;;;;;;14.48;8.23;;;;;;;12.48;19.75;94917.53;5111780;28;20019;-45
2022/03/21 09:45:05;;;;;;;14.57;9.30;;;;;;;11.40;22.38;94910.31;5111679;28;20032;-43
2022/03/21 09:50:15;;;;;;;11.90;8.45;;;;;;;12.35;21.25;94920.97;5111602;28;20081;-45
2022/03/21 09:52:41;;;;;;;10.70;8.00;;;;;;;12.09;21.00;94918.06;5110731;28;20458;-44
2022/03/21 09:55:09;;;;;;;14.32;8.23;;;;;;;10.95;22.05;94917.53;5107210;28;20016;-43
2022/03/21 09:57:35;;;;;;;14.80;8.05;;;;;;;10.98;22.29;94880.56;5090657;28;20146;-44
2022/03/21 10:00:03;;;;;;;13.43;9.07;;;;;;;10.75;23.47;94901.38;5090798;28;20052;-43
2022/03/21 10:02:28;;;;;;;15.30;8.65;;;;;;;11.34;24.41;94903.34;5091039;28;20024;-44
2022/03/21 10:04:54;;;;;;;11.57;8.45;;;;;;;12.10;22.76;94909.25;5090657;28;20027;-44
2022/03/21 10:07:26;;;;;;;10.23;7.20;;;;;;;12.80;21.94;94902.41;5090985;28;20027;-44
2022/03/21 10:10:24;;;;;;;15.93;9.07;;;;;;;12.28;21.87;94899.41;5091919;28;20077;-44
2022/03/21 10:12:50;;;;;;;15.13;8.23;;;;;;;11.84;21.52;94903.53;5087532;28;20088;-44
2022/03/21 10:15:17;;;;;;;11.60;7.72;;;;;;;11.10;22.10;94904.06;5111136;28;20031;-44
2022/03/21 10:17:42;;;;;;;13.40;8.77;;;;;;;10.98;22.70;94907.47;5110865;28;20030;-44
2022/03/21 10:20:13;;;;;;;11.52;8.48;;;;;;;11.20;23.01;94918.28;5110886;28;20034;-44
2022/03/21 10:22:43;;;;;;;11.95;7.88;;;;;;;11.19;22.70;94903.75;5111104;28;20024;-45
2022/03/21 10:25:16;;;;;;;13.65;9.13;;;;;;;11.28;22.75;94891.59;5111113;28;20443;-44
2022/03/21 10:27:44;;;;;;;11.80;8.05;;;;;;;11.52;23.48;94891.56;5110708;28;20118;-45
2022/03/21 10:30:21;;;;;;;19.38;11.63;;;;;;;10.79;23.14;94901.84;5110755;28;20116;-44
2022/03/21 10:32:59;;;;;;;18.42;11.02;;;;;;;11.18;23.70;94893.94;5110887;27;20042;-43
2022/03/21 10:35:31;;;;;;;11.65;8.32;;;;;;;11.97;23.83;94847.53;5110599;28;20023;-44
2022/03/21 10:38:02;;;;;;;10.38;7.95;;;;;;;12.59;21.80;94897.97;5110574;28;20536;-45
2022/03/21 10:40:41;;;;;;;10.60;8.27;;;;;;;12.35;22.27;94887.00;5110595;28;20019;-44
2022/03/21 10:43:07;;;;;;;;;;;;;;;12.64;20.93;94874.97;5111498;28;20102;-44
2022/03/21 10:45:48;;;;;;;11.25;8.05;;;;;;;12.49;22.15;94871.94;5110874;28;19986;-43
2022/03/21 10:48:16;;;;;;;10.95;7.60;;;;;;;12.67;20.89;94876.66;5110879;28;20024;-43
2022/03/21 10:50:45;;;;;;;11.10;7.72;;;;;;;12.42;23.31;94872.53;5110825;28;20030;-44
2022/03/21 10:53:17;;;;;;;10.50;7.15;;;;;;;11.86;21.66;94884.41;5110714;28;20031;-44
2022/03/21 10:55:45;;;;;;;11.27;7.65;;;;;;;11.80;22.56;94869.84;5101364;28;20554;-43
2022/03/21 10:58:13;;;;;;;10.73;7.70;;;;;;;10.81;24.04;94873.69;5089988;28;20040;-47
2022/03/21 11:00:38;;;;;;;11.38;7.50;;;;;;;11.85;23.42;94871.81;5090357;28;20031;-43
2022/03/21 11:03:12;;;;;;;10.13;7.07;;;;;;;12.57;22.89;94861.72;5090546;28;20019;-44
2022/03/21 11:05:40;;;;;;;11.00;7.20;;;;;;;13.03;21.57;94860.47;5094348;28;20036;-44
2022/03/21 11:08:07;;;;;;;14.18;6.80;;;;;;;11.92;20.70;94857.41;5094358;28;20024;-44
2022/03/21 11:10:33;;;;;;;9.07;7.25;;;;;;;11.66;21.58;94850.91;5100807;28;20660;-45
2022/03/21 11:13:01;;;;;;;10.93;6.88;;;;;;;11.57;22.11;94849.25;5114577;28;20026;-43
2022/03/21 11:15:28;;;;;;;12.73;7.93;;;;;;;12.24;21.72;94846.38;5114635;28;20054;-45
2022/03/21 11:17:55;;;;;;;9.27;6.90;;;;;;;12.27;21.97;94842.56;5114548;28;20514;-46
2022/03/21 11:20:20;;;;;;;8.50;7.25;;;;;;;12.41;21.49;94844.09;5114564;28;20024;-43
2022/03/21 11:22:46;;;;;;;19.02;8.60;;;;;;;12.74;22.05;94840.78;5114251;28;20039;-44
2022/03/21 11:25:18;;;;;;;15.88;8.70;;;;;;;12.89;21.42;94832.72;5114210;28;20027;-46
2022/03/21 11:28:01;;;;;;;11.38;7.07;;;;;;;13.13;20.52;94844.91;5114354;28;20555;-44
2022/03/21 11:30:53;;;;;;;12.13;7.75;;;;;;;10.85;22.45;94838.97;5114332;28;20099;-44
2022/03/21 11:33:41;;;;;;;11.68;8.27;;;;;;;10.85;24.79;94843.78;5113023;28;20085;-44
2022/03/21 11:36:11;;;;;;;12.20;7.70;;;;;;;11.18;23.67;94824.06;5108178;28;20485;-46
2022/03/21 11:38:50;;;;;;;10.85;7.72;;;;;;;11.80;24.16;94833.88;5114176;28;20459;-44
2022/03/21 11:41:22;;;;;;;11.10;7.20;;;;;;;11.80;22.30;94814.53;5113872;27;20027;-45
2022/03/21 11:44:03;;;;;;;13.52;7.10;;;;;;;11.62;23.77;94817.25;5113688;28;20031;-44
2022/03/21 11:46:29;;;;;;;12.15;7.10;;;;;;;10.57;23.83;94811.63;5114097;28;20416;-45
2022/03/21 11:48:59;;;;;;;8.68;6.80;;;;;;;10.01;24.15;94829.84;5113946;28;20050;-44
2022/03/21 11:51:26;;;;;;;8.07;6.95;;;;;;;10.19;24.09;94815.47;5113592;28;20542;-44
2022/03/21 11:53:53;;;;;;;10.77;7.32;;;;;;;10.32;23.67;94812.84;5113666;28;20493;-45